sensor_id;sensor_type;location;lat;lon;timestamp;P1;durP1;ratioP1;P2;durP2;ratioP2
32427;SDS011;18882;50.952;4.366;2022-07-12T00:01:20;4.15;;;3.05;;
32427;SDS011;18882;50.952;4.366;2022-07-12T00:03:46;3.15;;;2.80;;
32427;SDS011;18882;50.952;4.366;2022-07-12T00:06:12;5.43;;;3.10;;
32427;SDS011;18882;50.952;4.366;2022-07-12T00:08:38;8.45;;;3.47;;
32427;SDS011;18882;50.952;4.366;2022-07-12T00:11:04;5.25;;;3.55;;
32427;SDS011;18882;50.952;4.366;2022-07-12T00:13:30;8.48;;;3.35;;
32427;SDS011;18882;50.952;4.366;2022-07-12T00:15:56;4.43;;;3.35;;
32427;SDS011;18882;50.952;4.366;2022-07-12T00:18:22;3.45;;;3.15;;
32427;SDS011;18882;50.952;4.366;2022-07-12T00:20:48;4.38;;;3.17;;
32427;SDS011;18882;50.952;4.366;2022-07-12T00:23:14;6.75;;;3.50;;
32427;SDS011;18882;50.952;4.366;2022-07-12T00:25:40;4.22;;;3.20;;
32427;SDS011;18882;50.952;4.366;2022-07-12T00:28:06;7.38;;;3.75;;
32427;SDS011;18882;50.952;4.366;2022-07-12T00:30:32;3.67;;;2.97;;
32427;SDS011;18882;50.952;4.366;2022-07-12T00:32:58;3.20;;;2.90;;
32427;SDS011;18882;50.952;4.366;2022-07-12T00:35:24;3.75;;;3.25;;
32427;SDS011;18882;50.952;4.366;2022-07-12T00:37:50;4.68;;;3.75;;
32427;SDS011;18882;50.952;4.366;2022-07-12T00:40:15;5.32;;;3.28;;
32427;SDS011;18882;50.952;4.366;2022-07-12T00:42:42;3.53;;;3.20;;
32427;SDS011;18882;50.952;4.366;2022-07-12T00:45:08;6.40;;;3.47;;
32427;SDS011;18882;50.952;4.366;2022-07-12T00:47:36;8.32;;;3.53;;
32427;SDS011;18882;50.952;4.366;2022-07-12T00:50:08;8.73;;;3.20;;
32427;SDS011;18882;50.952;4.366;2022-07-12T00:52:45;5.07;;;2.92;;
32427;SDS011;18882;50.952;4.366;2022-07-12T00:55:13;4.90;;;3.40;;
32427;SDS011;18882;50.952;4.366;2022-07-12T00:57:40;8.25;;;2.97;;
32427;SDS011;18882;50.952;4.366;2022-07-12T01:00:12;6.88;;;3.00;;
32427;SDS011;18882;50.952;4.366;2022-07-12T01:02:43;7.20;;;3.00;;
32427;SDS011;18882;50.952;4.366;2022-07-12T01:05:11;4.30;;;2.78;;
32427;SDS011;18882;50.952;4.366;2022-07-12T01:07:37;4.93;;;2.95;;
32427;SDS011;18882;50.952;4.366;2022-07-12T01:10:03;3.33;;;3.03;;
32427;SDS011;18882;50.952;4.366;2022-07-12T01:12:31;3.92;;;3.08;;
32427;SDS011;18882;50.952;4.366;2022-07-12T01:14:57;5.15;;;3.33;;
32427;SDS011;18882;50.952;4.366;2022-07-12T01:17:25;3.70;;;3.08;;
32427;SDS011;18882;50.952;4.366;2022-07-12T01:19:52;4.22;;;2.88;;
32427;SDS011;18882;50.952;4.366;2022-07-12T01:22:29;5.07;;;3.47;;
32427;SDS011;18882;50.952;4.366;2022-07-12T01:24:56;3.60;;;2.92;;
32427;SDS011;18882;50.952;4.366;2022-07-12T01:27:23;2.80;;;2.60;;
32427;SDS011;18882;50.952;4.366;2022-07-12T01:29:48;3.22;;;2.92;;
32427;SDS011;18882;50.952;4.366;2022-07-12T01:32:14;3.50;;;3.20;;
32427;SDS011;18882;50.952;4.366;2022-07-12T01:34:56;3.08;;;2.78;;
32427;SDS011;18882;50.952;4.366;2022-07-12T01:37:25;3.13;;;2.85;;
32427;SDS011;18882;50.952;4.366;2022-07-12T01:39:54;3.13;;;2.78;;
32427;SDS011;18882;50.952;4.366;2022-07-12T01:42:21;3.45;;;3.15;;
32427;SDS011;18882;50.952;4.366;2022-07-12T01:44:49;3.17;;;2.88;;
32427;SDS011;18882;50.952;4.366;2022-07-12T01:47:16;4.30;;;3.30;;
32427;SDS011;18882;50.952;4.366;2022-07-12T01:49:45;3.42;;;3.13;;
32427;SDS011;18882;50.952;4.366;2022-07-12T01:52:11;3.10;;;2.50;;
32427;SDS011;18882;50.952;4.366;2022-07-12T01:54:38;3.75;;;3.38;;
32427;SDS011;18882;50.952;4.366;2022-07-12T01:57:04;3.10;;;2.83;;
32427;SDS011;18882;50.952;4.366;2022-07-12T01:59:30;5.13;;;2.80;;
32427;SDS011;18882;50.952;4.366;2022-07-12T02:01:57;4.57;;;3.58;;
32427;SDS011;18882;50.952;4.366;2022-07-12T02:04:23;5.88;;;3.17;;
32427;SDS011;18882;50.952;4.366;2022-07-12T02:06:49;3.47;;;3.17;;
32427;SDS011;18882;50.952;4.366;2022-07-12T02:09:15;4.47;;;2.95;;
32427;SDS011;18882;50.952;4.366;2022-07-12T02:11:42;4.95;;;3.30;;
32427;SDS011;18882;50.952;4.366;2022-07-12T02:14:09;3.60;;;2.65;;
32427;SDS011;18882;50.952;4.366;2022-07-12T02:16:35;3.80;;;2.75;;
32427;SDS011;18882;50.952;4.366;2022-07-12T02:19:01;3.42;;;3.13;;
32427;SDS011;18882;50.952;4.366;2022-07-12T02:21:27;2.92;;;2.65;;
32427;SDS011;18882;50.952;4.366;2022-07-12T02:23:53;4.20;;;2.80;;
32427;SDS011;18882;50.952;4.366;2022-07-12T02:26:18;3.15;;;2.72;;
32427;SDS011;18882;50.952;4.366;2022-07-12T02:28:45;3.40;;;3.10;;
32427;SDS011;18882;50.952;4.366;2022-07-12T02:31:10;10.27;;;3.10;;
32427;SDS011;18882;50.952;4.366;2022-07-12T02:33:36;3.10;;;2.80;;
32427;SDS011;18882;50.952;4.366;2022-07-12T02:36:02;3.75;;;3.42;;
32427;SDS011;18882;50.952;4.366;2022-07-12T02:38:27;3.60;;;3.00;;
32427;SDS011;18882;50.952;4.366;2022-07-12T02:40:53;5.50;;;3.28;;
32427;SDS011;18882;50.952;4.366;2022-07-12T02:43:23;5.95;;;3.13;;
32427;SDS011;18882;50.952;4.366;2022-07-12T02:45:50;6.45;;;3.10;;
32427;SDS011;18882;50.952;4.366;2022-07-12T02:48:16;4.15;;;3.25;;
32427;SDS011;18882;50.952;4.366;2022-07-12T02:50:42;3.75;;;3.05;;
32427;SDS011;18882;50.952;4.366;2022-07-12T02:53:09;6.70;;;3.47;;
32427;SDS011;18882;50.952;4.366;2022-07-12T02:55:35;10.48;;;3.80;;
32427;SDS011;18882;50.952;4.366;2022-07-12T02:58:02;4.97;;;3.97;;
32427;SDS011;18882;50.952;4.366;2022-07-12T03:00:29;4.03;;;3.25;;
32427;SDS011;18882;50.952;4.366;2022-07-12T03:02:54;6.60;;;4.25;;
32427;SDS011;18882;50.952;4.366;2022-07-12T03:05:20;5.53;;;3.70;;
32427;SDS011;18882;50.952;4.366;2022-07-12T03:07:46;5.85;;;4.35;;
32427;SDS011;18882;50.952;4.366;2022-07-12T03:10:12;4.60;;;3.63;;
32427;SDS011;18882;50.952;4.366;2022-07-12T03:12:37;5.70;;;4.13;;
32427;SDS011;18882;50.952;4.366;2022-07-12T03:15:04;8.50;;;4.20;;
32427;SDS011;18882;50.952;4.366;2022-07-12T03:17:31;7.15;;;4.60;;
32427;SDS011;18882;50.952;4.366;2022-07-12T03:19:59;7.97;;;4.47;;
32427;SDS011;18882;50.952;4.366;2022-07-12T03:22:26;8.65;;;4.18;;
32427;SDS011;18882;50.952;4.366;2022-07-12T03:24:51;5.32;;;4.20;;
32427;SDS011;18882;50.952;4.366;2022-07-12T03:27:17;5.35;;;4.07;;
32427;SDS011;18882;50.952;4.366;2022-07-12T03:29:43;7.88;;;4.20;;
32427;SDS011;18882;50.952;4.366;2022-07-12T03:32:09;10.18;;;4.53;;
32427;SDS011;18882;50.952;4.366;2022-07-12T03:34:35;5.38;;;3.97;;
32427;SDS011;18882;50.952;4.366;2022-07-12T03:37:01;4.90;;;3.45;;
32427;SDS011;18882;50.952;4.366;2022-07-12T03:39:29;4.35;;;3.95;;
32427;SDS011;18882;50.952;4.366;2022-07-12T03:41:55;10.43;;;4.38;;
32427;SDS011;18882;50.952;4.366;2022-07-12T03:44:21;5.03;;;4.20;;
32427;SDS011;18882;50.952;4.366;2022-07-12T03:46:46;6.35;;;3.95;;
32427;SDS011;18882;50.952;4.366;2022-07-12T03:49:12;6.97;;;4.10;;
32427;SDS011;18882;50.952;4.366;2022-07-12T03:51:38;4.13;;;3.42;;
32427;SDS011;18882;50.952;4.366;2022-07-12T03:54:05;8.40;;;3.78;;
32427;SDS011;18882;50.952;4.366;2022-07-12T03:56:32;9.07;;;4.15;;
32427;SDS011;18882;50.952;4.366;2022-07-12T03:59:17;10.15;;;4.30;;
32427;SDS011;18882;50.952;4.366;2022-07-12T04:01:43;7.93;;;4.07;;
32427;SDS011;18882;50.952;4.366;2022-07-12T04:04:09;8.18;;;3.92;;
32427;SDS011;18882;50.952;4.366;2022-07-12T04:06:34;5.03;;;3.97;;
32427;SDS011;18882;50.952;4.366;2022-07-12T04:09:00;9.18;;;4.28;;
32427;SDS011;18882;50.952;4.366;2022-07-12T04:11:25;6.82;;;4.28;;
32427;SDS011;18882;50.952;4.366;2022-07-12T04:13:51;6.90;;;4.75;;
32427;SDS011;18882;50.952;4.366;2022-07-12T04:16:17;7.95;;;5.10;;
32427;SDS011;18882;50.952;4.366;2022-07-12T04:18:43;7.15;;;4.63;;
32427;SDS011;18882;50.952;4.366;2022-07-12T04:21:08;7.97;;;5.10;;
32427;SDS011;18882;50.952;4.366;2022-07-12T04:23:34;9.80;;;5.30;;
32427;SDS011;18882;50.952;4.366;2022-07-12T04:25:59;5.15;;;4.28;;
32427;SDS011;18882;50.952;4.366;2022-07-12T04:28:25;9.98;;;4.28;;
32427;SDS011;18882;50.952;4.366;2022-07-12T04:30:51;12.07;;;3.42;;
32427;SDS011;18882;50.952;4.366;2022-07-12T04:33:16;6.43;;;3.80;;
32427;SDS011;18882;50.952;4.366;2022-07-12T04:35:42;8.38;;;4.20;;
32427;SDS011;18882;50.952;4.366;2022-07-12T04:38:08;8.63;;;3.90;;
32427;SDS011;18882;50.952;4.366;2022-07-12T04:40:33;5.13;;;3.97;;
32427;SDS011;18882;50.952;4.366;2022-07-12T04:42:59;11.75;;;4.00;;
32427;SDS011;18882;50.952;4.366;2022-07-12T04:45:25;9.88;;;4.28;;
32427;SDS011;18882;50.952;4.366;2022-07-12T04:47:50;4.70;;;4.20;;
32427;SDS011;18882;50.952;4.366;2022-07-12T04:50:16;7.93;;;4.30;;
32427;SDS011;18882;50.952;4.366;2022-07-12T04:52:42;6.43;;;4.43;;
32427;SDS011;18882;50.952;4.366;2022-07-12T04:55:08;6.55;;;4.38;;
32427;SDS011;18882;50.952;4.366;2022-07-12T04:57:34;7.85;;;4.72;;
32427;SDS011;18882;50.952;4.366;2022-07-12T05:00:00;7.10;;;4.18;;
32427;SDS011;18882;50.952;4.366;2022-07-12T05:02:26;6.05;;;4.22;;
32427;SDS011;18882;50.952;4.366;2022-07-12T05:04:51;6.50;;;3.83;;
32427;SDS011;18882;50.952;4.366;2022-07-12T05:07:17;3.88;;;3.22;;
32427;SDS011;18882;50.952;4.366;2022-07-12T05:09:43;8.43;;;3.85;;
32427;SDS011;18882;50.952;4.366;2022-07-12T05:12:09;4.28;;;3.78;;
32427;SDS011;18882;50.952;4.366;2022-07-12T05:14:34;6.35;;;4.72;;
32427;SDS011;18882;50.952;4.366;2022-07-12T05:17:00;4.68;;;3.70;;
32427;SDS011;18882;50.952;4.366;2022-07-12T05:19:25;6.13;;;3.83;;
32427;SDS011;18882;50.952;4.366;2022-07-12T05:21:51;6.55;;;4.22;;
32427;SDS011;18882;50.952;4.366;2022-07-12T05:24:17;8.32;;;4.63;;
32427;SDS011;18882;50.952;4.366;2022-07-12T05:26:42;6.88;;;4.00;;
32427;SDS011;18882;50.952;4.366;2022-07-12T05:29:08;4.97;;;4.07;;
32427;SDS011;18882;50.952;4.366;2022-07-12T05:31:34;4.53;;;3.88;;
32427;SDS011;18882;50.952;4.366;2022-07-12T05:34:00;8.38;;;5.75;;
32427;SDS011;18882;50.952;4.366;2022-07-12T05:36:26;7.68;;;4.13;;
32427;SDS011;18882;50.952;4.366;2022-07-12T05:38:52;5.30;;;4.70;;
32427;SDS011;18882;50.952;4.366;2022-07-12T05:41:18;5.93;;;4.50;;
32427;SDS011;18882;50.952;4.366;2022-07-12T05:43:43;10.90;;;5.20;;
32427;SDS011;18882;50.952;4.366;2022-07-12T05:46:09;13.20;;;5.65;;
32427;SDS011;18882;50.952;4.366;2022-07-12T05:48:35;13.15;;;4.43;;
32427;SDS011;18882;50.952;4.366;2022-07-12T05:51:01;7.78;;;5.10;;
32427;SDS011;18882;50.952;4.366;2022-07-12T05:53:46;14.10;;;5.25;;
32427;SDS011;18882;50.952;4.366;2022-07-12T05:56:11;8.50;;;4.50;;
32427;SDS011;18882;50.952;4.366;2022-07-12T05:58:37;8.55;;;4.53;;
32427;SDS011;18882;50.952;4.366;2022-07-12T06:01:03;10.70;;;6.22;;
32427;SDS011;18882;50.952;4.366;2022-07-12T06:03:29;16.13;;;7.13;;
32427;SDS011;18882;50.952;4.366;2022-07-12T06:05:54;16.98;;;7.13;;
32427;SDS011;18882;50.952;4.366;2022-07-12T06:08:20;20.77;;;8.23;;
32427;SDS011;18882;50.952;4.366;2022-07-12T06:10:46;14.70;;;6.95;;
32427;SDS011;18882;50.952;4.366;2022-07-12T06:13:11;17.73;;;6.28;;
32427;SDS011;18882;50.952;4.366;2022-07-12T06:15:37;14.63;;;6.03;;
32427;SDS011;18882;50.952;4.366;2022-07-12T06:18:03;16.27;;;5.78;;
32427;SDS011;18882;50.952;4.366;2022-07-12T06:20:28;13.82;;;6.70;;
32427;SDS011;18882;50.952;4.366;2022-07-12T06:22:55;14.48;;;5.60;;
32427;SDS011;18882;50.952;4.366;2022-07-12T06:25:21;12.25;;;5.93;;
32427;SDS011;18882;50.952;4.366;2022-07-12T06:27:46;21.95;;;6.47;;
32427;SDS011;18882;50.952;4.366;2022-07-12T06:30:14;23.60;;;6.28;;
32427;SDS011;18882;50.952;4.366;2022-07-12T06:32:41;23.90;;;6.43;;
32427;SDS011;18882;50.952;4.366;2022-07-12T06:35:08;13.20;;;6.57;;
32427;SDS011;18882;50.952;4.366;2022-07-12T06:37:33;20.90;;;6.25;;
32427;SDS011;18882;50.952;4.366;2022-07-12T06:39:59;15.10;;;7.00;;
32427;SDS011;18882;50.952;4.366;2022-07-12T06:42:25;9.32;;;6.45;;
32427;SDS011;18882;50.952;4.366;2022-07-12T06:44:50;11.23;;;6.03;;
32427;SDS011;18882;50.952;4.366;2022-07-12T06:47:16;13.23;;;6.18;;
32427;SDS011;18882;50.952;4.366;2022-07-12T06:49:42;10.07;;;5.43;;
32427;SDS011;18882;50.952;4.366;2022-07-12T06:52:07;10.80;;;6.18;;
32427;SDS011;18882;50.952;4.366;2022-07-12T06:54:33;7.75;;;5.82;;
32427;SDS011;18882;50.952;4.366;2022-07-12T06:56:59;11.80;;;6.38;;
32427;SDS011;18882;50.952;4.366;2022-07-12T06:59:24;13.95;;;6.03;;
32427;SDS011;18882;50.952;4.366;2022-07-12T07:01:50;11.63;;;6.28;;
32427;SDS011;18882;50.952;4.366;2022-07-12T07:04:17;11.82;;;6.80;;
32427;SDS011;18882;50.952;4.366;2022-07-12T07:06:43;7.88;;;6.50;;
32427;SDS011;18882;50.952;4.366;2022-07-12T07:09:08;10.02;;;7.10;;
32427;SDS011;18882;50.952;4.366;2022-07-12T07:11:35;8.57;;;6.32;;
32427;SDS011;18882;50.952;4.366;2022-07-12T07:14:01;9.35;;;5.95;;
32427;SDS011;18882;50.952;4.366;2022-07-12T07:16:28;7.82;;;6.00;;
32427;SDS011;18882;50.952;4.366;2022-07-12T07:18:53;7.63;;;6.50;;
32427;SDS011;18882;50.952;4.366;2022-07-12T07:21:19;8.02;;;6.00;;
32427;SDS011;18882;50.952;4.366;2022-07-12T07:23:45;9.43;;;5.68;;
32427;SDS011;18882;50.952;4.366;2022-07-12T07:26:10;7.40;;;5.68;;
32427;SDS011;18882;50.952;4.366;2022-07-12T07:28:36;7.72;;;5.88;;
32427;SDS011;18882;50.952;4.366;2022-07-12T07:31:22;6.93;;;5.28;;
32427;SDS011;18882;50.952;4.366;2022-07-12T07:33:47;7.70;;;5.93;;
32427;SDS011;18882;50.952;4.366;2022-07-12T07:36:13;6.18;;;5.40;;
32427;SDS011;18882;50.952;4.366;2022-07-12T07:38:39;6.75;;;5.75;;
32427;SDS011;18882;50.952;4.366;2022-07-12T07:41:05;8.80;;;5.53;;
32427;SDS011;18882;50.952;4.366;2022-07-12T07:43:30;6.28;;;5.65;;
32427;SDS011;18882;50.952;4.366;2022-07-12T07:45:56;8.73;;;5.55;;
32427;SDS011;18882;50.952;4.366;2022-07-12T07:48:22;6.70;;;5.22;;
32427;SDS011;18882;50.952;4.366;2022-07-12T07:50:47;9.70;;;5.60;;
32427;SDS011;18882;50.952;4.366;2022-07-12T07:53:13;6.88;;;5.45;;
32427;SDS011;18882;50.952;4.366;2022-07-12T07:55:39;5.28;;;4.53;;
32427;SDS011;18882;50.952;4.366;2022-07-12T07:58:05;6.50;;;5.53;;
32427;SDS011;18882;50.952;4.366;2022-07-12T08:00:31;4.95;;;4.45;;
32427;SDS011;18882;50.952;4.366;2022-07-12T08:02:56;5.57;;;4.95;;
32427;SDS011;18882;50.952;4.366;2022-07-12T08:05:22;5.57;;;4.80;;
32427;SDS011;18882;50.952;4.366;2022-07-12T08:07:48;6.65;;;5.65;;
32427;SDS011;18882;50.952;4.366;2022-07-12T08:10:14;7.75;;;5.25;;
32427;SDS011;18882;50.952;4.366;2022-07-12T08:12:40;8.98;;;5.43;;
32427;SDS011;18882;50.952;4.366;2022-07-12T08:15:05;9.35;;;5.07;;
32427;SDS011;18882;50.952;4.366;2022-07-12T08:17:31;7.53;;;4.93;;
32427;SDS011;18882;50.952;4.366;2022-07-12T08:19:57;6.75;;;4.90;;
32427;SDS011;18882;50.952;4.366;2022-07-12T08:22:23;4.75;;;4.25;;
32427;SDS011;18882;50.952;4.366;2022-07-12T08:24:49;5.07;;;4.35;;
32427;SDS011;18882;50.952;4.366;2022-07-12T08:27:15;5.78;;;4.85;;
32427;SDS011;18882;50.952;4.366;2022-07-12T08:29:41;5.10;;;4.60;;
32427;SDS011;18882;50.952;4.366;2022-07-12T08:32:07;6.90;;;4.93;;
32427;SDS011;18882;50.952;4.366;2022-07-12T08:34:33;5.88;;;4.95;;
32427;SDS011;18882;50.952;4.366;2022-07-12T08:36:59;6.25;;;4.45;;
32427;SDS011;18882;50.952;4.366;2022-07-12T08:39:25;6.40;;;4.28;;
32427;SDS011;18882;50.952;4.366;2022-07-12T08:41:51;4.13;;;3.83;;
32427;SDS011;18882;50.952;4.366;2022-07-12T08:44:16;8.48;;;4.00;;
32427;SDS011;18882;50.952;4.366;2022-07-12T08:46:42;7.47;;;4.38;;
32427;SDS011;18882;50.952;4.366;2022-07-12T08:49:08;5.80;;;3.85;;
32427;SDS011;18882;50.952;4.366;2022-07-12T08:51:34;5.30;;;4.43;;
32427;SDS011;18882;50.952;4.366;2022-07-12T08:54:07;4.70;;;3.88;;
32427;SDS011;18882;50.952;4.366;2022-07-12T08:56:40;4.00;;;3.70;;
32427;SDS011;18882;50.952;4.366;2022-07-12T08:59:11;3.78;;;3.42;;
32427;SDS011;18882;50.952;4.366;2022-07-12T09:01:39;5.10;;;4.10;;
32427;SDS011;18882;50.952;4.366;2022-07-12T09:04:13;8.48;;;4.03;;
32427;SDS011;18882;50.952;4.366;2022-07-12T09:06:39;7.85;;;3.80;;
32427;SDS011;18882;50.952;4.366;2022-07-12T09:09:05;4.18;;;3.30;;
32427;SDS011;18882;50.952;4.366;2022-07-12T09:11:34;3.70;;;3.40;;
32427;SDS011;18882;50.952;4.366;2022-07-12T09:14:04;4.30;;;3.90;;
32427;SDS011;18882;50.952;4.366;2022-07-12T09:16:30;4.35;;;3.40;;
32427;SDS011;18882;50.952;4.366;2022-07-12T09:19:12;4.20;;;3.53;;
32427;SDS011;18882;50.952;4.366;2022-07-12T09:24:14;5.18;;;3.30;;
32427;SDS011;18882;50.952;4.366;2022-07-12T09:26:40;4.15;;;3.72;;
32427;SDS011;18882;50.952;4.366;2022-07-12T09:29:06;3.40;;;3.10;;
32427;SDS011;18882;50.952;4.366;2022-07-12T09:31:44;5.32;;;3.45;;
32427;SDS011;18882;50.952;4.366;2022-07-12T09:34:33;4.00;;;3.20;;
32427;SDS011;18882;50.952;4.366;2022-07-12T09:37:18;4.15;;;3.75;;
32427;SDS011;18882;50.952;4.366;2022-07-12T09:39:45;3.85;;;3.50;;
32427;SDS011;18882;50.952;4.366;2022-07-12T09:42:12;4.70;;;2.95;;
32427;SDS011;18882;50.952;4.366;2022-07-12T09:44:39;3.45;;;3.08;;
32427;SDS011;18882;50.952;4.366;2022-07-12T09:47:12;4.28;;;3.10;;
32427;SDS011;18882;50.952;4.366;2022-07-12T09:49:41;3.88;;;2.95;;
32427;SDS011;18882;50.952;4.366;2022-07-12T09:52:10;4.03;;;2.90;;
32427;SDS011;18882;50.952;4.366;2022-07-12T09:54:46;3.38;;;3.08;;
32427;SDS011;18882;50.952;4.366;2022-07-12T09:57:30;3.08;;;2.60;;
32427;SDS011;18882;50.952;4.366;2022-07-12T09:59:58;3.03;;;2.70;;
32427;SDS011;18882;50.952;4.366;2022-07-12T10:02:25;3.20;;;2.97;;
32427;SDS011;18882;50.952;4.366;2022-07-12T10:04:51;2.78;;;2.58;;
32427;SDS011;18882;50.952;4.366;2022-07-12T10:07:18;2.92;;;2.72;;
32427;SDS011;18882;50.952;4.366;2022-07-12T10:09:44;4.80;;;2.47;;
32427;SDS011;18882;50.952;4.366;2022-07-12T10:12:12;3.25;;;2.83;;
32427;SDS011;18882;50.952;4.366;2022-07-12T10:14:41;2.83;;;2.63;;
32427;SDS011;18882;50.952;4.366;2022-07-12T10:17:08;2.60;;;2.40;;
32427;SDS011;18882;50.952;4.366;2022-07-12T10:19:35;2.90;;;2.60;;
32427;SDS011;18882;50.952;4.366;2022-07-12T10:22:06;2.97;;;2.58;;
32427;SDS011;18882;50.952;4.366;2022-07-12T10:29:42;3.75;;;2.38;;
32427;SDS011;18882;50.952;4.366;2022-07-12T10:35:05;4.32;;;2.75;;
32427;SDS011;18882;50.952;4.366;2022-07-12T10:37:36;2.72;;;2.53;;
32427;SDS011;18882;50.952;4.366;2022-07-12T10:40:12;2.45;;;2.35;;
32427;SDS011;18882;50.952;4.366;2022-07-12T10:45:35;2.97;;;2.70;;
32427;SDS011;18882;50.952;4.366;2022-07-12T10:48:08;5.57;;;2.78;;
32427;SDS011;18882;50.952;4.366;2022-07-12T10:58:32;2.22;;;2.05;;
32427;SDS011;18882;50.952;4.366;2022-07-12T11:01:02;3.33;;;2.47;;
32427;SDS011;18882;50.952;4.366;2022-07-12T11:03:30;2.33;;;2.13;;
32427;SDS011;18882;50.952;4.366;2022-07-12T11:06:05;2.50;;;2.30;;
32427;SDS011;18882;50.952;4.366;2022-07-12T11:08:45;3.03;;;2.03;;
32427;SDS011;18882;50.952;4.366;2022-07-12T11:11:15;3.95;;;2.38;;
32427;SDS011;18882;50.952;4.366;2022-07-12T11:13:41;2.67;;;2.47;;
32427;SDS011;18882;50.952;4.366;2022-07-12T11:16:07;3.20;;;2.95;;
32427;SDS011;18882;50.952;4.366;2022-07-12T11:18:33;3.13;;;2.80;;
32427;SDS011;18882;50.952;4.366;2022-07-12T11:21:00;2.65;;;2.35;;
32427;SDS011;18882;50.952;4.366;2022-07-12T11:23:27;2.33;;;2.10;;
32427;SDS011;18882;50.952;4.366;2022-07-12T11:25:54;1.95;;;1.85;;
32427;SDS011;18882;50.952;4.366;2022-07-12T11:28:21;2.42;;;2.22;;
32427;SDS011;18882;50.952;4.366;2022-07-12T11:30:50;6.97;;;2.75;;
32427;SDS011;18882;50.952;4.366;2022-07-12T11:33:16;2.85;;;2.50;;
32427;SDS011;18882;50.952;4.366;2022-07-12T11:35:46;4.00;;;2.53;;
32427;SDS011;18882;50.952;4.366;2022-07-12T11:38:13;2.58;;;2.40;;
32427;SDS011;18882;50.952;4.366;2022-07-12T11:40:48;2.45;;;2.35;;
32427;SDS011;18882;50.952;4.366;2022-07-12T11:43:25;2.90;;;2.70;;
32427;SDS011;18882;50.952;4.366;2022-07-12T11:45:52;2.47;;;2.28;;
32427;SDS011;18882;50.952;4.366;2022-07-12T11:48:19;3.47;;;2.35;;
32427;SDS011;18882;50.952;4.366;2022-07-12T11:50:45;5.32;;;2.65;;
32427;SDS011;18882;50.952;4.366;2022-07-12T11:53:15;2.95;;;2.42;;
32427;SDS011;18882;50.952;4.366;2022-07-12T11:55:45;6.95;;;3.10;;
32427;SDS011;18882;50.952;4.366;2022-07-12T11:58:12;2.70;;;2.50;;
32427;SDS011;18882;50.952;4.366;2022-07-12T12:00:42;3.95;;;2.30;;
32427;SDS011;18882;50.952;4.366;2022-07-12T12:03:09;2.60;;;2.40;;
32427;SDS011;18882;50.952;4.366;2022-07-12T12:05:35;2.17;;;2.03;;
32427;SDS011;18882;50.952;4.366;2022-07-12T12:08:02;2.47;;;2.28;;
32427;SDS011;18882;50.952;4.366;2022-07-12T12:10:28;4.88;;;2.45;;
32427;SDS011;18882;50.952;4.366;2022-07-12T12:12:54;2.65;;;2.45;;
32427;SDS011;18882;50.952;4.366;2022-07-12T12:15:22;2.97;;;2.40;;
32427;SDS011;18882;50.952;4.366;2022-07-12T12:17:59;2.42;;;2.30;;
32427;SDS011;18882;50.952;4.366;2022-07-12T12:22:57;2.13;;;1.92;;
32427;SDS011;18882;50.952;4.366;2022-07-12T12:25:23;2.20;;;2.10;;
32427;SDS011;18882;50.952;4.366;2022-07-12T12:27:54;2.03;;;1.88;;
32427;SDS011;18882;50.952;4.366;2022-07-12T12:30:21;2.97;;;1.98;;
32427;SDS011;18882;50.952;4.366;2022-07-12T12:35:18;2.30;;;2.05;;
32427;SDS011;18882;50.952;4.366;2022-07-12T12:37:55;2.30;;;2.10;;
32427;SDS011;18882;50.952;4.366;2022-07-12T12:40:23;3.92;;;2.35;;
32427;SDS011;18882;50.952;4.366;2022-07-12T12:42:51;4.18;;;2.40;;
32427;SDS011;18882;50.952;4.366;2022-07-12T12:45:20;3.20;;;2.95;;
32427;SDS011;18882;50.952;4.366;2022-07-12T12:47:59;3.78;;;2.35;;
32427;SDS011;18882;50.952;4.366;2022-07-12T12:50:40;2.55;;;2.35;;
32427;SDS011;18882;50.952;4.366;2022-07-12T12:53:11;3.40;;;2.30;;
32427;SDS011;18882;50.952;4.366;2022-07-12T12:55:36;2.28;;;2.15;;
32427;SDS011;18882;50.952;4.366;2022-07-12T12:58:03;3.20;;;2.45;;
32427;SDS011;18882;50.952;4.366;2022-07-12T13:00:29;6.22;;;2.60;;
32427;SDS011;18882;50.952;4.366;2022-07-12T13:02:56;9.10;;;3.13;;
32427;SDS011;18882;50.952;4.366;2022-07-12T13:05:24;3.10;;;2.50;;
32427;SDS011;18882;50.952;4.366;2022-07-12T13:07:51;4.72;;;2.78;;
32427;SDS011;18882;50.952;4.366;2022-07-12T13:10:17;3.65;;;2.80;;
32427;SDS011;18882;50.952;4.366;2022-07-12T13:12:42;4.68;;;2.80;;
32427;SDS011;18882;50.952;4.366;2022-07-12T13:15:09;3.00;;;2.67;;
32427;SDS011;18882;50.952;4.366;2022-07-12T13:17:35;3.13;;;2.92;;
32427;SDS011;18882;50.952;4.366;2022-07-12T13:20:01;5.32;;;2.80;;
32427;SDS011;18882;50.952;4.366;2022-07-12T13:22:28;3.88;;;2.78;;
32427;SDS011;18882;50.952;4.366;2022-07-12T13:24:54;5.63;;;2.85;;
32427;SDS011;18882;50.952;4.366;2022-07-12T13:27:20;3.88;;;3.47;;
32427;SDS011;18882;50.952;4.366;2022-07-12T13:29:46;6.50;;;2.75;;
32427;SDS011;18882;50.952;4.366;2022-07-12T13:32:12;3.45;;;3.15;;
32427;SDS011;18882;50.952;4.366;2022-07-12T13:34:37;3.08;;;2.88;;
32427;SDS011;18882;50.952;4.366;2022-07-12T13:37:04;2.53;;;2.33;;
32427;SDS011;18882;50.952;4.366;2022-07-12T13:39:30;3.00;;;2.47;;
32427;SDS011;18882;50.952;4.366;2022-07-12T13:42:14;4.60;;;2.78;;
32427;SDS011;18882;50.952;4.366;2022-07-12T13:44:41;2.83;;;2.63;;
32427;SDS011;18882;50.952;4.366;2022-07-12T13:47:08;2.58;;;2.38;;
32427;SDS011;18882;50.952;4.366;2022-07-12T13:49:33;3.67;;;2.97;;
32427;SDS011;18882;50.952;4.366;2022-07-12T13:51:59;4.15;;;2.72;;
32427;SDS011;18882;50.952;4.366;2022-07-12T13:54:26;4.65;;;2.60;;
32427;SDS011;18882;50.952;4.366;2022-07-12T13:56:52;4.22;;;2.70;;
32427;SDS011;18882;50.952;4.366;2022-07-12T13:59:19;2.63;;;2.38;;
32427;SDS011;18882;50.952;4.366;2022-07-12T14:01:44;3.08;;;2.78;;
32427;SDS011;18882;50.952;4.366;2022-07-12T14:04:10;5.35;;;2.67;;
32427;SDS011;18882;50.952;4.366;2022-07-12T14:06:36;3.10;;;2.42;;
32427;SDS011;18882;50.952;4.366;2022-07-12T14:09:02;3.85;;;2.38;;
32427;SDS011;18882;50.952;4.366;2022-07-12T14:11:28;5.32;;;2.50;;
32427;SDS011;18882;50.952;4.366;2022-07-12T14:13:53;3.28;;;2.58;;
32427;SDS011;18882;50.952;4.366;2022-07-12T14:16:19;4.43;;;2.42;;
32427;SDS011;18882;50.952;4.366;2022-07-12T14:18:46;2.15;;;1.95;;
32427;SDS011;18882;50.952;4.366;2022-07-12T14:21:11;2.33;;;2.20;;
32427;SDS011;18882;50.952;4.366;2022-07-12T14:23:37;4.13;;;2.22;;
32427;SDS011;18882;50.952;4.366;2022-07-12T14:26:03;2.20;;;2.08;;
32427;SDS011;18882;50.952;4.366;2022-07-12T14:28:30;4.25;;;2.78;;
32427;SDS011;18882;50.952;4.366;2022-07-12T14:30:55;2.60;;;2.35;;
32427;SDS011;18882;50.952;4.366;2022-07-12T14:33:22;2.55;;;2.28;;
32427;SDS011;18882;50.952;4.366;2022-07-12T14:35:47;3.70;;;1.90;;
32427;SDS011;18882;50.952;4.366;2022-07-12T14:38:14;6.05;;;2.53;;
32427;SDS011;18882;50.952;4.366;2022-07-12T14:40:40;2.75;;;2.08;;
32427;SDS011;18882;50.952;4.366;2022-07-12T14:43:06;2.00;;;1.90;;
32427;SDS011;18882;50.952;4.366;2022-07-12T14:45:31;5.15;;;1.63;;
32427;SDS011;18882;50.952;4.366;2022-07-12T14:47:57;2.50;;;1.70;;
32427;SDS011;18882;50.952;4.366;2022-07-12T14:50:23;3.30;;;2.35;;
32427;SDS011;18882;50.952;4.366;2022-07-12T14:52:48;2.00;;;1.90;;
32427;SDS011;18882;50.952;4.366;2022-07-12T14:55:14;1.73;;;1.63;;
32427;SDS011;18882;50.952;4.366;2022-07-12T14:57:39;2.22;;;1.42;;
32427;SDS011;18882;50.952;4.366;2022-07-12T15:00:08;2.67;;;1.80;;
32427;SDS011;18882;50.952;4.366;2022-07-12T15:02:35;1.55;;;1.45;;
32427;SDS011;18882;50.952;4.366;2022-07-12T15:05:01;1.55;;;1.45;;
32427;SDS011;18882;50.952;4.366;2022-07-12T15:07:30;1.80;;;1.70;;
32427;SDS011;18882;50.952;4.366;2022-07-12T15:09:56;3.22;;;1.52;;
32427;SDS011;18882;50.952;4.366;2022-07-12T15:12:22;1.83;;;1.73;;